sensor_id;sensor_type;location;lat;lon;timestamp;noise_LAeq;noise_LA_min;noise_LA_max;noise_LA01;noise_LA95
72805;Laerm;60920;48.748;19.142;2023-02-27T00:00:57;32.93;31.40;34.47;;
72805;Laerm;60920;48.748;19.142;2023-02-27T00:03:22;33.34;31.60;37.51;;
72805;Laerm;60920;48.748;19.142;2023-02-27T00:05:47;33.11;31.62;37.91;;
72805;Laerm;60920;48.748;19.142;2023-02-27T00:08:13;32.95;31.27;36.53;;
72805;Laerm;60920;48.748;19.142;2023-02-27T00:10:38;32.73;31.02;34.87;;
72805;Laerm;60920;48.748;19.142;2023-02-27T00:13:03;32.73;31.13;35.07;;
72805;Laerm;60920;48.748;19.142;2023-02-27T00:15:29;32.32;30.64;35.24;;
72805;Laerm;60920;48.748;19.142;2023-02-27T00:17:56;32.76;30.57;37.63;;
72805;Laerm;60920;48.748;19.142;2023-02-27T00:20:21;32.11;30.45;33.37;;
72805;Laerm;60920;48.748;19.142;2023-02-27T00:22:47;32.46;30.96;37.04;;
72805;Laerm;60920;48.748;19.142;2023-02-27T00:25:12;32.45;30.89;38.18;;
72805;Laerm;60920;48.748;19.142;2023-02-27T00:27:38;32.12;30.56;37.01;;
72805;Laerm;60920;48.748;19.142;2023-02-27T00:30:04;32.85;30.59;38.52;;
72805;Laerm;60920;48.748;19.142;2023-02-27T00:32:29;31.94;30.38;34.21;;
72805;Laerm;60920;48.748;19.142;2023-02-27T00:34:55;32.07;30.49;34.81;;
72805;Laerm;60920;48.748;19.142;2023-02-27T00:37:20;31.88;30.19;33.56;;
72805;Laerm;60920;48.748;19.142;2023-02-27T00:39:45;32.17;30.26;36.39;;
72805;Laerm;60920;48.748;19.142;2023-02-27T00:42:11;31.98;30.23;40.33;;
72805;Laerm;60920;48.748;19.142;2023-02-27T00:44:36;32.48;30.19;40.57;;
72805;Laerm;60920;48.748;19.142;2023-02-27T00:47:02;31.86;29.56;40.71;;
72805;Laerm;60920;48.748;19.142;2023-02-27T00:49:28;31.56;29.87;38.05;;
72805;Laerm;60920;48.748;19.142;2023-02-27T00:51:53;31.52;29.63;36.02;;
72805;Laerm;60920;48.748;19.142;2023-02-27T00:54:18;31.34;29.62;34.27;;
72805;Laerm;60920;48.748;19.142;2023-02-27T00:56:44;32.12;29.64;38.38;;
72805;Laerm;60920;48.748;19.142;2023-02-27T00:59:09;33.68;29.68;43.28;;
72805;Laerm;60920;48.748;19.142;2023-02-27T01:01:34;31.00;29.34;32.48;;
72805;Laerm;60920;48.748;19.142;2023-02-27T01:04:00;30.86;29.49;32.92;;
72805;Laerm;60920;48.748;19.142;2023-02-27T01:06:25;30.94;29.11;33.58;;
72805;Laerm;60920;48.748;19.142;2023-02-27T01:08:50;30.54;29.31;31.88;;
72805;Laerm;60920;48.748;19.142;2023-02-27T01:11:16;30.64;29.20;32.32;;
72805;Laerm;60920;48.748;19.142;2023-02-27T01:13:41;30.83;29.19;33.47;;
72805;Laerm;60920;48.748;19.142;2023-02-27T01:16:08;31.71;29.28;39.33;;
72805;Laerm;60920;48.748;19.142;2023-02-27T01:18:34;30.95;29.07;36.65;;
72805;Laerm;60920;48.748;19.142;2023-02-27T01:20:59;30.30;28.95;36.74;;
72805;Laerm;60920;48.748;19.142;2023-02-27T01:23:25;30.60;28.90;33.74;;
72805;Laerm;60920;48.748;19.142;2023-02-27T01:25:50;30.43;28.84;32.36;;
72805;Laerm;60920;48.748;19.142;2023-02-27T01:28:15;30.43;28.94;33.99;;
72805;Laerm;60920;48.748;19.142;2023-02-27T01:30:41;30.61;28.85;34.13;;
72805;Laerm;60920;48.748;19.142;2023-02-27T01:33:06;30.53;28.78;32.01;;
72805;Laerm;60920;48.748;19.142;2023-02-27T01:35:33;31.09;28.65;38.86;;
72805;Laerm;60920;48.748;19.142;2023-02-27T01:37:58;31.66;29.17;39.16;;
72805;Laerm;60920;48.748;19.142;2023-02-27T01:40:24;30.51;28.97;32.29;;
72805;Laerm;60920;48.748;19.142;2023-02-27T01:42:49;30.66;28.78;34.33;;
72805;Laerm;60920;48.748;19.142;2023-02-27T01:45:28;30.44;28.89;35.41;;
72805;Laerm;60920;48.748;19.142;2023-02-27T01:47:56;30.52;28.89;33.80;;
72805;Laerm;60920;48.748;19.142;2023-02-27T01:50:23;29.95;28.41;33.17;;
72805;Laerm;60920;48.748;19.142;2023-02-27T01:52:50;30.29;28.43;35.29;;
72805;Laerm;60920;48.748;19.142;2023-02-27T01:55:17;29.77;28.32;31.10;;
72805;Laerm;60920;48.748;19.142;2023-02-27T01:57:42;31.01;28.46;39.43;;
72805;Laerm;60920;48.748;19.142;2023-02-27T02:00:10;29.82;28.44;31.21;;
72805;Laerm;60920;48.748;19.142;2023-02-27T02:02:37;31.31;28.51;37.17;;
72805;Laerm;60920;48.748;19.142;2023-02-27T02:05:04;30.70;28.50;35.77;;
72805;Laerm;60920;48.748;19.142;2023-02-27T02:07:31;29.65;28.13;32.29;;
72805;Laerm;60920;48.748;19.142;2023-02-27T02:09:58;30.10;27.96;35.13;;
72805;Laerm;60920;48.748;19.142;2023-02-27T02:12:25;29.93;28.25;37.30;;
72805;Laerm;60920;48.748;19.142;2023-02-27T02:14:51;29.52;28.12;33.53;;
72805;Laerm;60920;48.748;19.142;2023-02-27T02:17:19;29.48;27.56;33.35;;
72805;Laerm;60920;48.748;19.142;2023-02-27T02:27:25;29.56;27.78;34.44;;
72805;Laerm;60920;48.748;19.142;2023-02-27T02:32:46;29.78;27.74;34.48;;
72805;Laerm;60920;48.748;19.142;2023-02-27T02:47:45;29.68;27.69;34.85;;
72805;Laerm;60920;48.748;19.142;2023-02-27T02:52:46;29.92;27.84;38.44;;
72805;Laerm;60920;48.748;19.142;2023-02-27T02:57:42;31.61;27.85;40.02;;
72805;Laerm;60920;48.748;19.142;2023-02-27T03:00:20;29.68;27.52;33.78;;
72805;Laerm;60920;48.748;19.142;2023-02-27T03:02:48;29.80;27.80;37.88;;
72805;Laerm;60920;48.748;19.142;2023-02-27T03:05:24;30.46;27.57;39.64;;
72805;Laerm;60920;48.748;19.142;2023-02-27T03:07:55;31.49;27.85;41.57;;
72805;Laerm;60920;48.748;19.142;2023-02-27T03:10:27;29.86;27.67;35.69;;
72805;Laerm;60920;48.748;19.142;2023-02-27T03:15:49;29.78;27.92;35.83;;
72805;Laerm;60920;48.748;19.142;2023-02-27T03:18:23;30.79;28.21;38.77;;
72805;Laerm;60920;48.748;19.142;2023-02-27T03:20:53;31.05;28.16;38.02;;
72805;Laerm;60920;48.748;19.142;2023-02-27T03:23:21;30.02;27.36;36.33;;
72805;Laerm;60920;48.748;19.142;2023-02-27T03:25:47;29.96;27.83;36.02;;
72805;Laerm;60920;48.748;19.142;2023-02-27T03:28:18;31.35;27.82;37.27;;
72805;Laerm;60920;48.748;19.142;2023-02-27T03:30:50;29.77;27.86;33.81;;
72805;Laerm;60920;48.748;19.142;2023-02-27T03:33:23;31.57;28.05;39.82;;
72805;Laerm;60920;48.748;19.142;2023-02-27T03:38:40;30.59;27.76;38.87;;
72805;Laerm;60920;48.748;19.142;2023-02-27T03:41:41;30.02;27.82;35.37;;
72805;Laerm;60920;48.748;19.142;2023-02-27T03:46:30;30.58;27.66;39.18;;
72805;Laerm;60920;48.748;19.142;2023-02-27T03:48:55;32.29;27.88;42.18;;
72805;Laerm;60920;48.748;19.142;2023-02-27T03:51:21;30.81;27.97;39.70;;
72805;Laerm;60920;48.748;19.142;2023-02-27T03:54:31;32.72;28.01;43.91;;
72805;Laerm;60920;48.748;19.142;2023-02-27T03:56:44;33.06;28.30;43.70;;
72805;Laerm;60920;48.748;19.142;2023-02-27T03:59:12;33.10;28.45;43.05;;
72805;Laerm;60920;48.748;19.142;2023-02-27T04:01:37;32.07;28.22;43.51;;
72805;Laerm;60920;48.748;19.142;2023-02-27T04:04:04;32.33;28.62;42.82;;
72805;Laerm;60920;48.748;19.142;2023-02-27T04:06:32;32.81;28.28;42.50;;
72805;Laerm;60920;48.748;19.142;2023-02-27T04:11:54;32.35;28.33;42.07;;
72805;Laerm;60920;48.748;19.142;2023-02-27T04:14:39;32.43;28.37;43.55;;
72805;Laerm;60920;48.748;19.142;2023-02-27T04:25:11;33.04;28.68;42.33;;
72805;Laerm;60920;48.748;19.142;2023-02-27T04:27:56;34.14;28.93;42.43;;
72805;Laerm;60920;48.748;19.142;2023-02-27T04:30:41;32.75;29.22;43.82;;
72805;Laerm;60920;48.748;19.142;2023-02-27T04:33:27;33.69;29.74;43.31;;
72805;Laerm;60920;48.748;19.142;2023-02-27T04:35:56;33.72;29.59;40.20;;
72805;Laerm;60920;48.748;19.142;2023-02-27T04:40:54;34.26;29.20;42.72;;
72805;Laerm;60920;48.748;19.142;2023-02-27T04:43:21;34.16;30.48;39.66;;
72805;Laerm;60920;48.748;19.142;2023-02-27T04:45:48;33.55;29.30;39.37;;
72805;Laerm;60920;48.748;19.142;2023-02-27T04:50:47;34.07;30.52;40.96;;
72805;Laerm;60920;48.748;19.142;2023-02-27T04:53:17;34.50;29.75;43.08;;
72805;Laerm;60920;48.748;19.142;2023-02-27T04:55:46;32.52;29.20;35.98;;
72805;Laerm;60920;48.748;19.142;2023-02-27T04:58:17;34.31;29.89;43.18;;
72805;Laerm;60920;48.748;19.142;2023-02-27T05:00:44;34.25;29.33;43.52;;
72805;Laerm;60920;48.748;19.142;2023-02-27T05:03:23;33.63;29.63;38.74;;
72805;Laerm;60920;48.748;19.142;2023-02-27T05:05:49;33.57;29.42;38.35;;
72805;Laerm;60920;48.748;19.142;2023-02-27T05:11:08;33.90;29.30;39.34;;
72805;Laerm;60920;48.748;19.142;2023-02-27T05:16:02;33.98;29.87;39.06;;
72805;Laerm;60920;48.748;19.142;2023-02-27T05:18:30;35.63;32.27;40.92;;
72805;Laerm;60920;48.748;19.142;2023-02-27T05:29:05;35.08;30.41;39.50;;
72805;Laerm;60920;48.748;19.142;2023-02-27T05:31:45;35.62;31.25;42.68;;
72805;Laerm;60920;48.748;19.142;2023-02-27T05:34:16;35.69;31.40;42.37;;
72805;Laerm;60920;48.748;19.142;2023-02-27T05:39:38;36.59;32.81;49.88;;
72805;Laerm;60920;48.748;19.142;2023-02-27T05:42:07;37.35;32.96;45.81;;
72805;Laerm;60920;48.748;19.142;2023-02-27T05:44:37;37.08;32.28;47.97;;
72805;Laerm;60920;48.748;19.142;2023-02-27T05:47:04;37.03;33.01;44.02;;
72805;Laerm;60920;48.748;19.142;2023-02-27T05:49:32;37.04;32.03;41.87;;
72805;Laerm;60920;48.748;19.142;2023-02-27T05:52:01;36.42;33.19;41.53;;
72805;Laerm;60920;48.748;19.142;2023-02-27T05:57:13;36.52;33.46;41.11;;
72805;Laerm;60920;48.748;19.142;2023-02-27T05:59:42;35.83;31.17;40.55;;
72805;Laerm;60920;48.748;19.142;2023-02-27T06:02:10;35.77;31.92;43.16;;
72805;Laerm;60920;48.748;19.142;2023-02-27T06:04:36;35.97;32.10;42.45;;
72805;Laerm;60920;48.748;19.142;2023-02-27T06:07:01;36.82;33.04;42.12;;
72805;Laerm;60920;48.748;19.142;2023-02-27T06:09:29;37.19;32.20;44.09;;
72805;Laerm;60920;48.748;19.142;2023-02-27T06:11:55;36.65;32.83;46.86;;
72805;Laerm;60920;48.748;19.142;2023-02-27T06:14:20;36.18;32.46;39.44;;
72805;Laerm;60920;48.748;19.142;2023-02-27T06:16:45;37.48;33.07;46.84;;
72805;Laerm;60920;48.748;19.142;2023-02-27T06:19:10;37.00;32.85;43.70;;
72805;Laerm;60920;48.748;19.142;2023-02-27T06:21:36;37.11;32.40;49.93;;
72805;Laerm;60920;48.748;19.142;2023-02-27T06:24:01;35.92;32.54;40.81;;
72805;Laerm;60920;48.748;19.142;2023-02-27T06:26:26;36.30;32.47;42.15;;
72805;Laerm;60920;48.748;19.142;2023-02-27T06:28:52;35.65;31.29;39.72;;
72805;Laerm;60920;48.748;19.142;2023-02-27T06:31:17;36.20;32.57;40.39;;
72805;Laerm;60920;48.748;19.142;2023-02-27T06:33:42;36.96;32.57;42.33;;
72805;Laerm;60920;48.748;19.142;2023-02-27T06:36:07;37.32;33.30;43.38;;
72805;Laerm;60920;48.748;19.142;2023-02-27T06:38:33;36.61;32.64;44.83;;
72805;Laerm;60920;48.748;19.142;2023-02-27T06:40:58;36.42;32.95;40.75;;
72805;Laerm;60920;48.748;19.142;2023-02-27T06:43:24;37.32;32.98;42.95;;
72805;Laerm;60920;48.748;19.142;2023-02-27T06:45:52;37.18;32.51;41.24;;
72805;Laerm;60920;48.748;19.142;2023-02-27T06:48:17;36.82;32.77;41.09;;
72805;Laerm;60920;48.748;19.142;2023-02-27T06:50:43;36.52;32.98;42.19;;
72805;Laerm;60920;48.748;19.142;2023-02-27T06:53:08;37.92;33.26;44.98;;
72805;Laerm;60920;48.748;19.142;2023-02-27T06:55:36;37.17;33.29;44.73;;
72805;Laerm;60920;48.748;19.142;2023-02-27T06:58:02;36.33;31.76;43.65;;
72805;Laerm;60920;48.748;19.142;2023-02-27T07:00:27;35.80;31.71;41.67;;
72805;Laerm;60920;48.748;19.142;2023-02-27T07:02:53;36.20;32.74;40.27;;
72805;Laerm;60920;48.748;19.142;2023-02-27T07:05:18;36.33;32.05;41.05;;
72805;Laerm;60920;48.748;19.142;2023-02-27T07:07:44;36.45;30.91;41.94;;
72805;Laerm;60920;48.748;19.142;2023-02-27T07:10:10;36.53;32.66;41.84;;
72805;Laerm;60920;48.748;19.142;2023-02-27T07:12:36;35.39;32.17;42.14;;
72805;Laerm;60920;48.748;19.142;2023-02-27T07:15:02;36.88;32.97;45.72;;
72805;Laerm;60920;48.748;19.142;2023-02-27T07:17:27;36.84;32.14;57.53;;
72805;Laerm;60920;48.748;19.142;2023-02-27T07:19:53;36.50;32.41;41.06;;
72805;Laerm;60920;48.748;19.142;2023-02-27T07:22:18;36.53;32.97;45.90;;
72805;Laerm;60920;48.748;19.142;2023-02-27T07:24:43;35.63;32.40;41.31;;
72805;Laerm;60920;48.748;19.142;2023-02-27T07:27:09;37.70;34.09;44.20;;
72805;Laerm;60920;48.748;19.142;2023-02-27T07:29:34;37.17;32.50;49.03;;
72805;Laerm;60920;48.748;19.142;2023-02-27T07:32:00;36.40;32.12;41.52;;
72805;Laerm;60920;48.748;19.142;2023-02-27T07:34:25;36.19;32.81;42.40;;
72805;Laerm;60920;48.748;19.142;2023-02-27T07:36:51;36.50;31.71;42.32;;
72805;Laerm;60920;48.748;19.142;2023-02-27T07:39:16;35.71;32.26;40.62;;
72805;Laerm;60920;48.748;19.142;2023-02-27T07:41:41;36.06;32.34;41.09;;
72805;Laerm;60920;48.748;19.142;2023-02-27T07:44:07;36.28;32.01;44.31;;
72805;Laerm;60920;48.748;19.142;2023-02-27T07:46:32;36.10;32.68;40.34;;
72805;Laerm;60920;48.748;19.142;2023-02-27T07:48:58;35.85;32.93;47.61;;
72805;Laerm;60920;48.748;19.142;2023-02-27T07:51:23;36.14;32.82;46.97;;
72805;Laerm;60920;48.748;19.142;2023-02-27T07:53:48;37.31;32.71;50.70;;
72805;Laerm;60920;48.748;19.142;2023-02-27T07:56:14;36.57;32.57;43.44;;
72805;Laerm;60920;48.748;19.142;2023-02-27T07:58:39;35.57;31.85;40.65;;
72805;Laerm;60920;48.748;19.142;2023-02-27T08:01:04;36.78;33.27;42.54;;
72805;Laerm;60920;48.748;19.142;2023-02-27T08:03:29;36.35;32.84;41.48;;
72805;Laerm;60920;48.748;19.142;2023-02-27T08:05:55;36.39;33.17;42.12;;
72805;Laerm;60920;48.748;19.142;2023-02-27T08:08:20;36.15;32.68;42.19;;
72805;Laerm;60920;48.748;19.142;2023-02-27T08:10:46;35.48;32.18;40.89;;
72805;Laerm;60920;48.748;19.142;2023-02-27T08:13:11;35.80;32.62;41.29;;
72805;Laerm;60920;48.748;19.142;2023-02-27T08:15:36;34.70;31.85;39.76;;
72805;Laerm;60920;48.748;19.142;2023-02-27T08:18:02;36.02;31.81;42.53;;
72805;Laerm;60920;48.748;19.142;2023-02-27T08:20:27;36.76;32.46;45.58;;
72805;Laerm;60920;48.748;19.142;2023-02-27T08:22:52;34.81;31.54;40.07;;
72805;Laerm;60920;48.748;19.142;2023-02-27T08:25:18;35.25;32.34;40.85;;
72805;Laerm;60920;48.748;19.142;2023-02-27T08:27:44;35.36;30.89;45.29;;
72805;Laerm;60920;48.748;19.142;2023-02-27T08:30:10;34.37;30.81;41.29;;
72805;Laerm;60920;48.748;19.142;2023-02-27T08:32:36;34.69;30.72;42.49;;
72805;Laerm;60920;48.748;19.142;2023-02-27T08:35:02;34.69;30.81;47.18;;
72805;Laerm;60920;48.748;19.142;2023-02-27T08:37:28;35.18;31.03;50.38;;
72805;Laerm;60920;48.748;19.142;2023-02-27T08:39:53;34.70;31.24;38.39;;
72805;Laerm;60920;48.748;19.142;2023-02-27T08:42:18;34.89;30.21;43.09;;
72805;Laerm;60920;48.748;19.142;2023-02-27T08:44:44;34.25;30.59;40.96;;
72805;Laerm;60920;48.748;19.142;2023-02-27T08:47:09;34.53;30.99;42.21;;
72805;Laerm;60920;48.748;19.142;2023-02-27T08:49:34;34.47;31.01;46.41;;
72805;Laerm;60920;48.748;19.142;2023-02-27T08:52:00;36.07;30.76;44.12;;
72805;Laerm;60920;48.748;19.142;2023-02-27T08:54:25;34.21;30.37;41.17;;
72805;Laerm;60920;48.748;19.142;2023-02-27T08:56:50;33.94;30.18;49.75;;
72805;Laerm;60920;48.748;19.142;2023-02-27T08:59:16;34.45;30.42;41.05;;
72805;Laerm;60920;48.748;19.142;2023-02-27T09:01:41;34.58;29.81;44.55;;
72805;Laerm;60920;48.748;19.142;2023-02-27T09:04:07;34.07;30.30;41.04;;
72805;Laerm;60920;48.748;19.142;2023-02-27T09:06:32;33.82;30.79;40.11;;
72805;Laerm;60920;48.748;19.142;2023-02-27T09:08:59;34.13;30.69;38.84;;
72805;Laerm;60920;48.748;19.142;2023-02-27T09:11:24;34.89;30.98;45.65;;
72805;Laerm;60920;48.748;19.142;2023-02-27T09:13:50;34.57;31.21;39.83;;
72805;Laerm;60920;48.748;19.142;2023-02-27T09:16:16;33.81;30.97;41.04;;
72805;Laerm;60920;48.748;19.142;2023-02-27T09:18:42;34.64;31.03;39.99;;
72805;Laerm;60920;48.748;19.142;2023-02-27T09:21:07;34.85;31.22;40.66;;
72805;Laerm;60920;48.748;19.142;2023-02-27T09:23:32;34.81;31.07;41.11;;
72805;Laerm;60920;48.748;19.142;2023-02-27T09:25:57;35.14;31.72;41.18;;
72805;Laerm;60920;48.748;19.142;2023-02-27T09:28:23;35.26;31.44;41.04;;
72805;Laerm;60920;48.748;19.142;2023-02-27T09:30:48;35.28;30.78;40.81;;
72805;Laerm;60920;48.748;19.142;2023-02-27T09:33:13;34.92;31.27;41.23;;
72805;Laerm;60920;48.748;19.142;2023-02-27T09:35:39;36.90;31.86;46.54;;
72805;Laerm;60920;48.748;19.142;2023-02-27T09:38:05;34.87;29.78;47.19;;
72805;Laerm;60920;48.748;19.142;2023-02-27T09:40:31;35.47;31.44;42.16;;
72805;Laerm;60920;48.748;19.142;2023-02-27T09:42:58;34.60;30.77;42.52;;
72805;Laerm;60920;48.748;19.142;2023-02-27T09:45:26;34.27;30.93;42.31;;
72805;Laerm;60920;48.748;19.142;2023-02-27T09:47:53;33.95;30.14;40.39;;
72805;Laerm;60920;48.748;19.142;2023-02-27T09:52:45;33.18;29.79;43.57;;
72805;Laerm;60920;48.748;19.142;2023-02-27T09:55:12;33.38;29.75;43.77;;
72805;Laerm;60920;48.748;19.142;2023-02-27T09:57:42;34.28;30.29;42.03;;
72805;Laerm;60920;48.748;19.142;2023-02-27T10:00:26;32.92;29.12;45.04;;
72805;Laerm;60920;48.748;19.142;2023-02-27T10:02:58;32.98;28.74;41.02;;
72805;Laerm;60920;48.748;19.142;2023-02-27T10:05:35;33.03;29.86;37.76;;
72805;Laerm;60920;48.748;19.142;2023-02-27T10:08:13;33.45;29.66;38.17;;
72805;Laerm;60920;48.748;19.142;2023-02-27T10:10:49;33.58;30.49;38.81;;
72805;Laerm;60920;48.748;19.142;2023-02-27T10:15:59;32.99;29.90;44.33;;
72805;Laerm;60920;48.748;19.142;2023-02-27T10:18:28;34.12;30.21;41.66;;
72805;Laerm;60920;48.748;19.142;2023-02-27T10:20:55;32.29;29.24;37.93;;
72805;Laerm;60920;48.748;19.142;2023-02-27T10:23:26;33.92;30.85;38.84;;
72805;Laerm;60920;48.748;19.142;2023-02-27T10:25:54;33.31;29.63;48.49;;
72805;Laerm;60920;48.748;19.142;2023-02-27T10:28:20;33.49;29.95;40.29;;
72805;Laerm;60920;48.748;19.142;2023-02-27T10:30:47;33.60;30.21;40.39;;
72805;Laerm;60920;48.748;19.142;2023-02-27T10:35:53;33.48;29.80;42.93;;
72805;Laerm;60920;48.748;19.142;2023-02-27T10:39:05;34.30;29.23;55.84;;
72805;Laerm;60920;48.748;19.142;2023-02-27T10:41:04;32.88;29.45;40.96;;
72805;Laerm;60920;48.748;19.142;2023-02-27T10:43:30;32.91;28.97;41.78;;
72805;Laerm;60920;48.748;19.142;2023-02-27T10:45:59;34.04;29.33;45.10;;
72805;Laerm;60920;48.748;19.142;2023-02-27T10:48:24;32.48;28.89;36.66;;
72805;Laerm;60920;48.748;19.142;2023-02-27T10:50:50;32.17;29.02;38.21;;
72805;Laerm;60920;48.748;19.142;2023-02-27T10:55:47;33.92;29.61;40.44;;
72805;Laerm;60920;48.748;19.142;2023-02-27T10:58:19;33.60;29.37;42.13;;
72805;Laerm;60920;48.748;19.142;2023-02-27T11:00:52;33.26;30.08;41.03;;
72805;Laerm;60920;48.748;19.142;2023-02-27T11:03:20;39.29;29.59;55.16;;
72805;Laerm;60920;48.748;19.142;2023-02-27T11:05:59;32.68;29.19;43.28;;
72805;Laerm;60920;48.748;19.142;2023-02-27T11:08:29;33.21;30.11;38.48;;
72805;Laerm;60920;48.748;19.142;2023-02-27T11:11:05;33.23;29.12;39.98;;
72805;Laerm;60920;48.748;19.142;2023-02-27T11:13:35;32.60;29.31;42.64;;
72805;Laerm;60920;48.748;19.142;2023-02-27T11:16:06;32.66;29.25;37.68;;
72805;Laerm;60920;48.748;19.142;2023-02-27T11:18:32;33.34;29.73;42.57;;
72805;Laerm;60920;48.748;19.142;2023-02-27T11:21:15;32.82;29.06;40.04;;
72805;Laerm;60920;48.748;19.142;2023-02-27T11:24:00;32.16;29.33;37.76;;
72805;Laerm;60920;48.748;19.142;2023-02-27T11:26:37;33.22;29.10;43.12;;
72805;Laerm;60920;48.748;19.142;2023-02-27T11:31:27;32.87;29.42;38.50;;
72805;Laerm;60920;48.748;19.142;2023-02-27T11:33:55;34.15;29.72;42.55;;
72805;Laerm;60920;48.748;19.142;2023-02-27T11:36:21;33.86;29.94;45.75;;
72805;Laerm;60920;48.748;19.142;2023-02-27T11:38:54;33.94;30.11;42.89;;
72805;Laerm;60920;48.748;19.142;2023-02-27T11:41:29;33.09;29.01;38.82;;
72805;Laerm;60920;48.748;19.142;2023-02-27T11:43:54;32.92;29.57;44.87;;
72805;Laerm;60920;48.748;19.142;2023-02-27T11:46:22;33.07;29.00;39.08;;
72805;Laerm;60920;48.748;19.142;2023-02-27T11:48:49;32.95;28.97;40.28;;
72805;Laerm;60920;48.748;19.142;2023-02-27T11:56:11;33.07;29.57;39.80;;
72805;Laerm;60920;48.748;19.142;2023-02-27T11:58:43;31.98;28.76;37.48;;
72805;Laerm;60920;48.748;19.142;2023-02-27T12:01:45;32.86;28.80;39.49;;
72805;Laerm;60920;48.748;19.142;2023-02-27T12:04:09;32.70;29.17;42.59;;
72805;Laerm;60920;48.748;19.142;2023-02-27T12:06:41;33.51;29.33;38.98;;
72805;Laerm;60920;48.748;19.142;2023-02-27T12:11:43;32.40;28.92;37.21;;
72805;Laerm;60920;48.748;19.142;2023-02-27T12:14:17;33.75;28.99;44.27;;
72805;Laerm;60920;48.748;19.142;2023-02-27T12:16:50;34.16;28.54;47.43;;
72805;Laerm;60920;48.748;19.142;2023-02-27T12:19:25;33.03;28.59;40.09;;
72805;Laerm;60920;48.748;19.142;2023-02-27T12:21:58;32.67;29.07;40.77;;
72805;Laerm;60920;48.748;19.142;2023-02-27T12:24:30;33.59;28.76;42.09;;
72805;Laerm;60920;48.748;19.142;2023-02-27T12:27:01;33.32;29.45;43.75;;
72805;Laerm;60920;48.748;19.142;2023-02-27T12:29:33;32.90;28.65;38.72;;
72805;Laerm;60920;48.748;19.142;2023-02-27T12:34:38;32.39;28.36;39.66;;
72805;Laerm;60920;48.748;19.142;2023-02-27T12:37:13;32.59;28.71;37.51;;
72805;Laerm;60920;48.748;19.142;2023-02-27T12:39:41;33.45;29.21;41.47;;
72805;Laerm;60920;48.748;19.142;2023-02-27T12:45:16;33.58;29.10;45.80;;
72805;Laerm;60920;48.748;19.142;2023-02-27T12:53:20;32.32;28.84;38.89;;
72805;Laerm;60920;48.748;19.142;2023-02-27T12:55:49;33.29;28.89;42.14;;
72805;Laerm;60920;48.748;19.142;2023-02-27T13:00:59;32.74;28.86;39.85;;
72805;Laerm;60920;48.748;19.142;2023-02-27T13:08:39;32.68;29.39;39.09;;
72805;Laerm;60920;48.748;19.142;2023-02-27T13:16:15;33.46;30.19;42.30;;
72805;Laerm;60920;48.748;19.142;2023-02-27T13:18:55;33.23;29.29;41.03;;
72805;Laerm;60920;48.748;19.142;2023-02-27T13:26:29;32.47;28.44;40.32;;
72805;Laerm;60920;48.748;19.142;2023-02-27T13:28:56;32.69;28.36;39.88;;
72805;Laerm;60920;48.748;19.142;2023-02-27T13:34:04;33.01;29.07;44.53;;
72805;Laerm;60920;48.748;19.142;2023-02-27T13:36:34;32.56;28.99;49.32;;
72805;Laerm;60920;48.748;19.142;2023-02-27T13:39:03;33.11;28.48;39.07;;
72805;Laerm;60920;48.748;19.142;2023-02-27T13:46:42;33.57;29.43;38.75;;
72805;Laerm;60920;48.748;19.142;2023-02-27T13:59:22;33.67;29.38;42.04;;
72805;Laerm;60920;48.748;19.142;2023-02-27T14:01:58;32.47;28.52;37.65;;
72805;Laerm;60920;48.748;19.142;2023-02-27T14:04:25;32.95;29.32;38.84;;
72805;Laerm;60920;48.748;19.142;2023-02-27T14:07:10;33.33;30.00;44.12;;
72805;Laerm;60920;48.748;19.142;2023-02-27T14:09:39;33.72;29.46;44.19;;
72805;Laerm;60920;48.748;19.142;2023-02-27T14:12:05;34.30;30.15;42.01;;
72805;Laerm;60920;48.748;19.142;2023-02-27T14:17:04;33.41;29.42;47.23;;
72805;Laerm;60920;48.748;19.142;2023-02-27T14:24:26;33.19;29.07;37.69;;
72805;Laerm;60920;48.748;19.142;2023-02-27T14:26:53;33.73;29.76;42.04;;
72805;Laerm;60920;48.748;19.142;2023-02-27T14:29:28;33.80;30.28;41.27;;
72805;Laerm;60920;48.748;19.142;2023-02-27T14:32:00;33.87;28.97;43.35;;
72805;Laerm;60920;48.748;19.142;2023-02-27T14:34:30;33.96;30.84;40.50;;
72805;Laerm;60920;48.748;19.142;2023-02-27T14:36:59;33.97;29.13;39.62;;
72805;Laerm;60920;48.748;19.142;2023-02-27T14:44:37;34.66;30.21;43.76;;
72805;Laerm;60920;48.748;19.142;2023-02-27T14:47:03;34.57;29.98;45.28;;
72805;Laerm;60920;48.748;19.142;2023-02-27T14:49:38;35.14;29.70;47.22;;
72805;Laerm;60920;48.748;19.142;2023-02-27T14:52:21;33.80;30.24;41.04;;
72805;Laerm;60920;48.748;19.142;2023-02-27T14:54:47;32.96;29.42;39.74;;
72805;Laerm;60920;48.748;19.142;2023-02-27T14:59:42;35.16;30.69;42.48;;
72805;Laerm;60920;48.748;19.142;2023-02-27T15:02:13;33.54;29.56;43.62;;
72805;Laerm;60920;48.748;19.142;2023-02-27T15:04:39;34.57;30.69;42.43;;
72805;Laerm;60920;48.748;19.142;2023-02-27T15:07:05;34.47;29.71;51.79;;
72805;Laerm;60920;48.748;19.142;2023-02-27T15:09:34;33.87;30.04;42.63;;
72805;Laerm;60920;48.748;19.142;2023-02-27T15:12:01;34.84;30.34;41.89;;
72805;Laerm;60920;48.748;19.142;2023-02-27T15:14:37;35.48;31.38;46.10;;
72805;Laerm;60920;48.748;19.142;2023-02-27T15:17:12;35.54;30.90;43.67;;
72805;Laerm;60920;48.748;19.142;2023-02-27T15:19:44;34.47;29.96;39.96;;
72805;Laerm;60920;48.748;19.142;2023-02-27T15:22:15;33.40;29.71;39.95;;
72805;Laerm;60920;48.748;19.142;2023-02-27T15:24:41;34.24;30.34;42.83;;
72805;Laerm;60920;48.748;19.142;2023-02-27T15:27:12;33.13;28.74;41.45;;
72805;Laerm;60920;48.748;19.142;2023-02-27T15:29:43;33.27;29.31;44.49;;
72805;Laerm;60920;48.748;19.142;2023-02-27T15:32:18;34.38;29.84;39.10;;
72805;Laerm;60920;48.748;19.142;2023-02-27T15:34:45;33.51;29.46;39.55;;
72805;Laerm;60920;48.748;19.142;2023-02-27T15:37:17;34.49;30.10;42.05;;
72805;Laerm;60920;48.748;19.142;2023-02-27T15:39:43;34.51;30.25;39.94;;
72805;Laerm;60920;48.748;19.142;2023-02-27T15:42:09;33.51;28.44;48.30;;
72805;Laerm;60920;48.748;19.142;2023-02-27T15:44:36;33.39;29.79;43.06;;
72805;Laerm;60920;48.748;19.142;2023-02-27T15:47:03;33.93;30.03;47.91;;
72805;Laerm;60920;48.748;19.142;2023-02-27T15:49:28;41.70;30.88;61.86;;
72805;Laerm;60920;48.748;19.142;2023-02-27T15:52:03;33.19;29.30;44.92;;
72805;Laerm;60920;48.748;19.142;2023-02-27T15:54:30;33.76;30.66;38.68;;
72805;Laerm;60920;48.748;19.142;2023-02-27T15:56:56;34.60;29.71;47.63;;
72805;Laerm;60920;48.748;19.142;2023-02-27T15:59:22;34.21;29.89;40.12;;
72805;Laerm;60920;48.748;19.142;2023-02-27T16:01:49;33.89;29.89;40.76;;
72805;Laerm;60920;48.748;19.142;2023-02-27T16:04:22;33.64;29.04;41.12;;
72805;Laerm;60920;48.748;19.142;2023-02-27T16:07:11;33.79;29.90;58.62;;
72805;Laerm;60920;48.748;19.142;2023-02-27T16:09:39;33.93;30.35;44.06;;
72805;Laerm;60920;48.748;19.142;2023-02-27T16:12:18;33.95;29.72;40.19;;